createdAt,value
2018-03-28T00:00:38.822Z,952.74
2018-03-28T00:01:38.818Z,952.75
2018-03-28T00:02:38.814Z,952.77
2018-03-28T00:03:38.859Z,952.70
2018-03-28T00:04:38.805Z,952.72
2018-03-28T00:05:38.802Z,952.76
2018-03-28T00:06:38.816Z,952.73
2018-03-28T00:07:38.795Z,952.78
2018-03-28T00:08:38.804Z,952.77
2018-03-28T00:09:38.787Z,952.78
2018-03-28T00:10:38.781Z,952.68
2018-03-28T00:11:38.778Z,952.74
2018-03-28T00:12:38.771Z,952.76
2018-03-28T00:13:38.767Z,952.84
2018-03-28T00:14:38.763Z,952.73
2018-03-28T00:15:38.767Z,952.79
2018-03-28T00:16:38.755Z,952.75
2018-03-28T00:17:38.750Z,952.74
2018-03-28T00:18:38.751Z,952.68
2018-03-28T00:19:38.743Z,952.72
2018-03-28T00:20:38.739Z,952.71
2018-03-28T00:21:38.734Z,952.69
2018-03-28T00:22:38.730Z,952.63
2018-03-28T00:23:38.729Z,952.61
2018-03-28T00:24:38.720Z,952.58
2018-03-28T00:25:38.717Z,952.59
2018-03-28T00:26:38.711Z,952.59
2018-03-28T00:27:38.713Z,952.56
2018-03-28T00:28:38.702Z,952.55
2018-03-28T00:29:38.701Z,952.50
2018-03-28T00:30:38.692Z,952.53
2018-03-28T00:31:38.688Z,952.55
2018-03-28T00:32:38.684Z,952.49
2018-03-28T00:33:38.680Z,952.45
2018-03-28T00:34:38.683Z,952.49
2018-03-28T00:35:38.674Z,952.49
2018-03-28T00:36:38.670Z,952.36
2018-03-28T00:37:38.662Z,952.40
2018-03-28T00:38:38.685Z,952.40
2018-03-28T00:39:38.653Z,952.34
2018-03-28T00:40:38.649Z,952.37
2018-03-28T00:41:38.645Z,952.37
2018-03-28T00:42:38.640Z,952.32
2018-03-28T00:43:38.636Z,952.36
2018-03-28T00:44:38.633Z,952.33
2018-03-28T00:45:38.629Z,952.27
2018-03-28T00:46:38.625Z,952.29
2018-03-28T00:47:38.622Z,952.28
2018-03-28T00:48:38.631Z,952.27
2018-03-28T00:49:38.608Z,952.24
2018-03-28T00:50:38.603Z,952.23
2018-03-28T00:51:38.599Z,952.16
2018-03-28T00:52:38.595Z,952.22
2018-03-28T00:53:38.592Z,952.15
2018-03-28T00:54:38.586Z,952.20
2018-03-28T00:55:38.582Z,952.14
2018-03-28T00:56:38.580Z,952.15
2018-03-28T00:57:38.573Z,952.14
2018-03-28T00:58:38.570Z,952.10
2018-03-28T00:59:38.564Z,952.15
2018-03-28T01:00:38.559Z,952.18
2018-03-28T01:01:38.557Z,952.17
2018-03-28T01:02:38.559Z,952.19
2018-03-28T01:03:38.547Z,952.21
2018-03-28T01:04:38.541Z,952.14
2018-03-28T01:05:38.537Z,952.13
2018-03-28T01:06:38.561Z,952.17
2018-03-28T01:07:38.528Z,952.17
2018-03-28T01:08:38.523Z,952.20
2018-03-28T01:09:38.519Z,952.18
2018-03-28T01:10:38.515Z,952.19
2018-03-28T01:11:38.511Z,952.23
2018-03-28T01:12:38.506Z,952.19
2018-03-28T01:13:38.504Z,952.16
2018-03-28T01:14:38.498Z,952.17
2018-03-28T01:15:38.496Z,952.19
2018-03-28T01:16:38.488Z,952.10
2018-03-28T01:17:38.483Z,952.10
2018-03-28T01:18:38.487Z,952.07
2018-03-28T01:19:38.474Z,952.07
2018-03-28T01:20:38.469Z,952.10
2018-03-28T01:21:38.479Z,952.00
2018-03-28T01:22:38.463Z,952.03
2018-03-28T01:23:38.461Z,952.05
2018-03-28T01:24:38.455Z,951.98
2018-03-28T01:25:38.450Z,951.93
2018-03-28T01:26:38.450Z,952.00
2018-03-28T01:27:38.444Z,951.98
2018-03-28T01:28:38.434Z,951.93
2018-03-28T01:29:38.431Z,951.95
2018-03-28T01:30:38.430Z,951.95
2018-03-28T01:31:38.423Z,951.96
2018-03-28T01:32:38.418Z,951.93
2018-03-28T01:33:38.414Z,951.99
2018-03-28T01:34:38.412Z,951.92
2018-03-28T01:35:38.412Z,951.95
2018-03-28T01:36:38.403Z,951.87
2018-03-28T01:37:38.398Z,951.93
2018-03-28T01:38:38.396Z,951.83
2018-03-28T01:39:38.389Z,951.86
2018-03-28T01:40:38.394Z,951.81
2018-03-28T01:41:38.382Z,951.82
2018-03-28T01:42:38.375Z,951.85
2018-03-28T01:43:38.374Z,951.83
2018-03-28T01:44:38.366Z,951.86
2018-03-28T01:45:38.376Z,951.80
2018-03-28T01:46:38.360Z,951.77
2018-03-28T01:47:38.354Z,951.75
2018-03-28T01:48:38.348Z,951.77
2018-03-28T01:49:38.344Z,951.74
2018-03-28T01:50:38.340Z,951.71
2018-03-28T01:51:38.340Z,951.67
2018-03-28T01:52:38.333Z,951.70
2018-03-28T01:53:38.329Z,951.68
2018-03-28T01:54:38.325Z,951.68
2018-03-28T01:55:38.321Z,951.69
2018-03-28T01:56:38.316Z,951.62
2018-03-28T01:57:38.312Z,951.62
2018-03-28T01:58:38.309Z,951.66
2018-03-28T01:59:38.304Z,951.58
2018-03-28T02:00:38.297Z,951.57
2018-03-28T02:01:38.291Z,951.58
2018-03-28T02:02:38.290Z,951.57
2018-03-28T02:03:38.285Z,951.49
2018-03-28T02:04:38.281Z,951.54
2018-03-28T02:05:38.277Z,951.56
2018-03-28T02:06:38.271Z,951.51
2018-03-28T02:07:38.279Z,951.50
2018-03-28T02:08:38.264Z,951.52
2018-03-28T02:09:38.260Z,951.45
2018-03-28T02:10:38.258Z,951.46
2018-03-28T02:11:38.251Z,951.46
2018-03-28T02:12:38.247Z,951.45
2018-03-28T02:13:38.241Z,951.36
2018-03-28T02:14:38.239Z,951.44
2018-03-28T02:15:38.234Z,951.33
2018-03-28T02:16:38.227Z,951.37
2018-03-28T02:17:38.245Z,951.42
2018-03-28T02:18:38.222Z,951.39
2018-03-28T02:19:38.216Z,951.40
2018-03-28T02:20:38.210Z,951.41
2018-03-28T02:21:38.206Z,951.39
2018-03-28T02:22:38.225Z,951.42
2018-03-28T02:23:38.198Z,951.43
2018-03-28T02:24:38.196Z,951.33
2018-03-28T02:25:38.192Z,951.32
2018-03-28T02:26:38.187Z,951.28
2018-03-28T02:27:38.181Z,951.22
2018-03-28T02:28:38.176Z,951.23
2018-03-28T02:29:38.173Z,951.25
2018-03-28T02:30:38.169Z,951.30
2018-03-28T02:31:38.166Z,951.28
2018-03-28T02:32:38.160Z,951.23
2018-03-28T02:33:38.156Z,951.29
2018-03-28T02:34:38.173Z,951.28
2018-03-28T02:35:38.158Z,951.18
2018-03-28T02:36:38.143Z,951.24
2018-03-28T02:37:38.146Z,951.25
2018-03-28T02:38:38.138Z,951.24
2018-03-28T02:39:38.130Z,951.23
2018-03-28T02:40:38.127Z,951.27
2018-03-28T02:41:38.121Z,951.27
2018-03-28T02:42:38.119Z,951.28
2018-03-28T02:43:38.116Z,951.30
2018-03-28T02:44:38.109Z,951.18
2018-03-28T02:45:38.111Z,951.24
2018-03-28T02:46:38.100Z,951.21
2018-03-28T02:47:38.102Z,951.25
2018-03-28T02:48:38.091Z,951.20
2018-03-28T02:49:38.086Z,951.23
2018-03-28T02:50:38.084Z,951.19
2018-03-28T02:51:38.078Z,951.24
2018-03-28T02:52:38.073Z,951.24
2018-03-28T02:53:38.070Z,951.21
2018-03-28T02:54:38.063Z,951.20
2018-03-28T02:55:38.067Z,951.23
2018-03-28T02:56:38.062Z,951.23
2018-03-28T02:57:38.052Z,951.21
2018-03-28T02:58:38.047Z,951.21
2018-03-28T02:59:38.044Z,951.20
2018-03-28T03:00:38.037Z,951.20
2018-03-28T03:01:38.034Z,951.21
2018-03-28T03:02:38.039Z,951.22
2018-03-28T03:03:38.025Z,951.19
2018-03-28T03:04:38.027Z,951.25
2018-03-28T03:05:38.021Z,951.24
2018-03-28T03:06:38.016Z,951.20
2018-03-28T03:07:38.007Z,951.16
2018-03-28T03:08:38.003Z,951.20
2018-03-28T03:09:38.000Z,951.20
2018-03-28T03:10:37.996Z,951.21
2018-03-28T03:11:37.992Z,951.18
2018-03-28T03:12:37.982Z,951.17
2018-03-28T03:13:38.001Z,951.16
2018-03-28T03:14:37.972Z,951.20
2018-03-28T03:15:37.969Z,951.22
2018-03-28T03:16:37.967Z,951.24
2018-03-28T03:17:37.962Z,951.27
2018-03-28T03:18:37.958Z,951.23
2018-03-28T03:19:37.953Z,951.17
2018-03-28T03:20:37.948Z,951.16
2018-03-28T03:21:37.943Z,951.16
2018-03-28T03:22:37.947Z,951.19
2018-03-28T03:23:37.939Z,951.16
2018-03-28T03:24:37.956Z,951.15
2018-03-28T03:25:37.926Z,951.17
2018-03-28T03:26:37.921Z,951.14
2018-03-28T03:27:37.926Z,951.18
2018-03-28T03:28:37.914Z,951.09
2018-03-28T03:29:37.911Z,951.11
2018-03-28T03:30:37.908Z,951.08
2018-03-28T03:31:37.902Z,951.10
2018-03-28T03:32:37.896Z,951.13
2018-03-28T03:33:37.892Z,951.11
2018-03-28T03:34:37.892Z,951.12
2018-03-28T03:35:37.890Z,951.12
2018-03-28T03:36:37.879Z,951.18
2018-03-28T03:37:37.880Z,951.20
2018-03-28T03:38:37.884Z,951.22
2018-03-28T03:39:37.867Z,951.26
2018-03-28T03:40:37.863Z,951.26
2018-03-28T03:41:37.871Z,951.26
2018-03-28T03:42:37.854Z,951.22
2018-03-28T03:43:37.850Z,951.20
2018-03-28T03:44:37.846Z,951.15
2018-03-28T03:45:37.840Z,951.11
2018-03-28T03:46:37.839Z,951.13
2018-03-28T03:47:37.858Z,951.10
2018-03-28T03:48:37.827Z,951.11
2018-03-28T03:49:37.825Z,951.16
2018-03-28T03:50:37.820Z,951.14
2018-03-28T03:51:37.816Z,951.12
2018-03-28T03:52:37.853Z,951.17
2018-03-28T03:53:37.805Z,951.17
2018-03-28T03:54:37.798Z,951.15
2018-03-28T03:55:37.796Z,951.13
2018-03-28T03:56:37.800Z,951.16
2018-03-28T03:57:37.793Z,951.13
2018-03-28T03:58:38.481Z,951.17
2018-03-28T03:59:37.784Z,951.16
2018-03-28T04:00:37.776Z,951.21
2018-03-28T04:01:37.777Z,951.16
2018-03-28T04:02:37.767Z,951.12
2018-03-28T04:03:37.763Z,951.13
2018-03-28T04:04:37.815Z,951.11
2018-03-28T04:05:37.782Z,951.07
2018-03-28T04:06:37.749Z,951.16
2018-03-28T04:07:37.763Z,951.06
2018-03-28T04:08:37.748Z,951.09
2018-03-28T04:09:37.739Z,951.09
2018-03-28T04:10:37.732Z,951.08
2018-03-28T04:11:37.729Z,951.10
2018-03-28T04:12:37.726Z,951.12
2018-03-28T04:13:37.720Z,951.08
2018-03-28T04:14:37.715Z,951.07
2018-03-28T04:15:37.710Z,951.03
2018-03-28T04:16:37.705Z,951.10
2018-03-28T04:17:37.700Z,950.99
2018-03-28T04:18:37.699Z,951.04
2018-03-28T04:19:37.697Z,951.04
2018-03-28T04:20:37.695Z,950.99
2018-03-28T04:21:37.682Z,950.97
2018-03-28T04:22:37.678Z,950.99
2018-03-28T04:23:37.673Z,950.93
2018-03-28T04:24:37.668Z,950.93
2018-03-28T04:25:37.670Z,950.91
2018-03-28T04:26:37.666Z,950.90
2018-03-28T04:27:37.660Z,950.97
2018-03-28T04:28:37.661Z,951.00
2018-03-28T04:29:37.648Z,950.97
2018-03-28T04:30:37.648Z,950.95
2018-03-28T04:31:37.658Z,950.96
2018-03-28T04:32:37.636Z,950.96
2018-03-28T04:33:37.631Z,950.92
2018-03-28T04:34:37.633Z,950.96
2018-03-28T04:35:37.620Z,950.95
2018-03-28T04:36:37.655Z,950.93
2018-03-28T04:37:37.627Z,950.93
2018-03-28T04:38:37.613Z,950.93
2018-03-28T04:39:37.603Z,950.89
2018-03-28T04:40:37.599Z,950.90
2018-03-28T04:41:37.595Z,950.90
2018-03-28T04:42:37.610Z,950.82
2018-03-28T04:43:37.593Z,950.76
2018-03-28T04:44:37.581Z,950.83
2018-03-28T04:45:37.579Z,950.82
2018-03-28T04:46:37.576Z,950.77
2018-03-28T04:47:37.570Z,950.75
2018-03-28T04:48:37.566Z,950.77
2018-03-28T04:49:37.578Z,950.79
2018-03-28T04:50:37.558Z,950.80
2018-03-28T04:51:37.551Z,950.83
2018-03-28T04:52:37.546Z,950.83
2018-03-28T04:53:37.550Z,950.79
2018-03-28T04:54:37.538Z,950.69
2018-03-28T04:55:37.537Z,950.66
2018-03-28T04:56:37.530Z,950.69
2018-03-28T04:57:37.527Z,950.67
2018-03-28T04:58:37.522Z,950.69
2018-03-28T04:59:37.527Z,950.70
2018-03-28T05:00:37.518Z,950.70
2018-03-28T05:01:37.509Z,950.70
2018-03-28T05:02:37.505Z,950.70
2018-03-28T05:03:37.505Z,950.66
2018-03-28T05:04:37.497Z,950.65
2018-03-28T05:05:37.496Z,950.68
2018-03-28T05:06:37.492Z,950.72
2018-03-28T05:07:37.481Z,950.78
2018-03-28T05:08:37.494Z,950.74
2018-03-28T05:09:37.475Z,950.77
2018-03-28T05:10:37.472Z,950.79
2018-03-28T05:11:37.465Z,950.83
2018-03-28T05:12:37.464Z,950.81
2018-03-28T05:13:37.460Z,950.84
2018-03-28T05:14:37.458Z,950.84
2018-03-28T05:15:37.461Z,950.84
2018-03-28T05:16:37.443Z,950.88
2018-03-28T05:17:37.439Z,950.91
2018-03-28T05:18:37.438Z,950.91
2018-03-28T05:19:37.435Z,950.92
2018-03-28T05:20:37.439Z,950.90
2018-03-28T05:21:37.428Z,950.93
2018-03-28T05:22:37.455Z,950.98
2018-03-28T05:23:37.415Z,950.99
2018-03-28T05:24:37.419Z,950.91
2018-03-28T05:25:37.404Z,950.93
2018-03-28T05:26:37.402Z,950.96
2018-03-28T05:27:37.400Z,950.91
2018-03-28T05:28:37.391Z,950.95
2018-03-28T05:29:37.385Z,950.88
2018-03-28T05:30:37.383Z,950.90
2018-03-28T05:31:37.382Z,950.86
2018-03-28T05:32:37.375Z,950.89
2018-03-28T05:33:37.369Z,950.91
2018-03-28T05:34:37.362Z,950.89
2018-03-28T05:35:37.361Z,950.84
2018-03-28T05:36:37.359Z,950.83
2018-03-28T05:37:37.381Z,950.87
2018-03-28T05:38:37.348Z,950.86
2018-03-28T05:39:37.341Z,950.84
2018-03-28T05:40:37.336Z,950.89
2018-03-28T05:41:37.333Z,950.89
2018-03-28T05:42:37.334Z,950.87
2018-03-28T05:43:37.327Z,950.92
2018-03-28T05:44:37.325Z,950.86
2018-03-28T05:45:38.340Z,950.89
2018-03-28T05:46:37.311Z,950.90
2018-03-28T05:47:37.305Z,950.87
2018-03-28T05:48:37.300Z,950.92
2018-03-28T05:49:37.298Z,950.91
2018-03-28T05:50:37.292Z,950.83
2018-03-28T05:51:37.342Z,950.84
2018-03-28T05:52:37.285Z,950.84
2018-03-28T05:53:37.280Z,950.87
2018-03-28T05:54:37.273Z,950.87
2018-03-28T05:55:37.270Z,950.91
2018-03-28T05:56:37.272Z,950.93
2018-03-28T05:57:37.262Z,950.91
2018-03-28T05:58:37.256Z,950.91
2018-03-28T05:59:37.258Z,950.90
2018-03-28T06:00:37.253Z,950.92
2018-03-28T06:01:37.250Z,950.92
2018-03-28T06:02:37.253Z,950.90
2018-03-28T06:03:37.523Z,950.90
2018-03-28T06:04:38.560Z,950.93
2018-03-28T06:05:37.427Z,950.88
2018-03-28T06:06:37.235Z,950.84
2018-03-28T06:07:37.456Z,950.86
2018-03-28T06:08:37.399Z,950.86
2018-03-28T06:09:37.269Z,950.86
2018-03-28T06:10:38.100Z,950.82
2018-03-28T06:11:38.991Z,950.87
2018-03-28T06:12:37.201Z,950.83
2018-03-28T06:13:37.334Z,950.79
2018-03-28T06:14:37.994Z,950.79
2018-03-28T06:15:37.188Z,950.75
2018-03-28T06:16:37.183Z,950.75
2018-03-28T06:17:37.999Z,950.72
2018-03-28T06:18:37.179Z,950.71
2018-03-28T06:19:37.172Z,950.75
2018-03-28T06:20:37.168Z,950.73
2018-03-28T06:21:37.167Z,950.74
2018-03-28T06:22:37.159Z,950.73
2018-03-28T06:23:37.187Z,950.72
2018-03-28T06:24:37.155Z,950.71
2018-03-28T06:25:37.151Z,950.69
2018-03-28T06:26:37.156Z,950.72
2018-03-28T06:27:37.333Z,950.66
2018-03-28T06:28:37.144Z,950.69
2018-03-28T06:29:37.137Z,950.69
2018-03-28T06:30:37.143Z,950.67
2018-03-28T06:31:37.134Z,950.69
2018-03-28T06:32:37.122Z,950.68
2018-03-28T06:33:37.408Z,950.69
2018-03-28T06:34:37.194Z,950.71
2018-03-28T06:35:37.147Z,950.71
2018-03-28T06:36:37.111Z,950.68
2018-03-28T06:37:37.103Z,950.66
2018-03-28T06:38:37.097Z,950.63
2018-03-28T06:39:37.094Z,950.60
2018-03-28T06:40:37.097Z,950.63
2018-03-28T06:41:37.092Z,950.60
2018-03-28T06:42:37.086Z,950.64
2018-03-28T06:43:37.427Z,950.63
2018-03-28T06:44:37.098Z,950.54
2018-03-28T06:45:37.076Z,950.57
2018-03-28T06:46:41.330Z,950.53
2018-03-28T06:47:44.413Z,950.52
2018-03-28T06:48:37.841Z,950.59
2018-03-28T06:49:38.080Z,950.55
2018-03-28T06:50:37.052Z,950.50
2018-03-28T06:51:37.050Z,950.48
2018-03-28T06:52:37.047Z,950.53
2018-03-28T06:53:37.063Z,950.47
2018-03-28T06:54:37.100Z,950.46
2018-03-28T06:55:37.051Z,950.40
2018-03-28T06:56:37.036Z,950.48
2018-03-28T06:57:37.035Z,950.47
2018-03-28T06:58:37.032Z,950.42
2018-03-28T06:59:37.039Z,950.41
2018-03-28T07:00:37.021Z,950.42
2018-03-28T07:01:37.014Z,950.39
2018-03-28T07:02:38.014Z,950.34
2018-03-28T07:03:37.042Z,950.33
2018-03-28T07:04:37.005Z,950.32
2018-03-28T07:05:37.006Z,950.38
2018-03-28T07:06:36.992Z,950.37
2018-03-28T07:07:36.993Z,950.38
2018-03-28T07:08:37.057Z,950.45
2018-03-28T07:09:36.983Z,950.43
2018-03-28T07:10:36.982Z,950.43
2018-03-28T07:11:36.976Z,950.39
2018-03-28T07:12:36.974Z,950.40
2018-03-28T07:13:36.976Z,950.43
2018-03-28T07:14:36.967Z,950.42
2018-03-28T07:15:36.965Z,950.44
2018-03-28T07:16:36.960Z,950.42
2018-03-28T07:17:36.957Z,950.34
2018-03-28T07:18:36.966Z,950.38
2018-03-28T07:19:36.952Z,950.41
2018-03-28T07:20:37.004Z,950.41
2018-03-28T07:21:36.958Z,950.37
2018-03-28T07:22:36.944Z,950.36
2018-03-28T07:23:36.952Z,950.34
2018-03-28T07:24:36.937Z,950.34
2018-03-28T07:25:36.933Z,950.37
2018-03-28T07:26:36.935Z,950.36
2018-03-28T07:27:36.926Z,950.40
2018-03-28T07:28:36.941Z,950.34
2018-03-28T07:29:36.925Z,950.32
2018-03-28T07:30:36.917Z,950.40
2018-03-28T07:31:36.915Z,950.39
2018-03-28T07:32:36.915Z,950.43
2018-03-28T07:33:36.913Z,950.41
2018-03-28T07:34:36.906Z,950.42
2018-03-28T07:35:36.912Z,950.46
2018-03-28T07:36:36.924Z,950.46
2018-03-28T07:37:36.899Z,950.46
2018-03-28T07:38:36.895Z,950.48
2018-03-28T07:39:36.893Z,950.47
2018-03-28T07:40:36.902Z,950.48
2018-03-28T07:41:36.887Z,950.53
2018-03-28T07:42:36.885Z,950.54
2018-03-28T07:43:36.882Z,950.45
2018-03-28T07:44:36.994Z,950.49
2018-03-28T07:45:36.906Z,950.50
2018-03-28T07:46:36.877Z,950.50
2018-03-28T07:47:36.883Z,950.55
2018-03-28T07:48:36.871Z,950.54
2018-03-28T07:49:36.872Z,950.54
2018-03-28T07:50:36.872Z,950.55
2018-03-28T07:51:36.934Z,950.51
2018-03-28T07:52:36.859Z,950.54
2018-03-28T07:53:36.854Z,950.53
2018-03-28T07:54:36.857Z,950.51
2018-03-28T07:55:36.847Z,950.48
2018-03-28T07:56:36.848Z,950.44
2018-03-28T07:57:36.872Z,950.45
2018-03-28T07:58:36.924Z,950.53
2018-03-28T07:59:36.834Z,950.47
2018-03-28T08:00:36.834Z,950.45
2018-03-28T08:01:36.829Z,950.44
2018-03-28T08:02:36.837Z,950.52
2018-03-28T08:03:36.829Z,950.48
2018-03-28T08:04:36.853Z,950.40
2018-03-28T08:05:36.822Z,950.40
2018-03-28T08:06:36.815Z,950.39
2018-03-28T08:07:36.815Z,950.40
2018-03-28T08:08:36.806Z,950.43
2018-03-28T08:09:36.820Z,950.38
2018-03-28T08:10:36.813Z,950.37
2018-03-28T08:11:36.807Z,950.41
2018-03-28T08:12:36.802Z,950.39
2018-03-28T08:13:36.795Z,950.39
2018-03-28T08:14:36.793Z,950.40
2018-03-28T08:15:36.790Z,950.39
2018-03-28T08:16:36.786Z,950.41
2018-03-28T08:17:36.840Z,950.32
2018-03-28T08:18:36.941Z,950.34
2018-03-28T08:19:36.776Z,950.33
2018-03-28T08:20:36.776Z,950.37
2018-03-28T08:21:36.770Z,950.38
2018-03-28T08:22:36.767Z,950.40
2018-03-28T08:23:36.765Z,950.42
2018-03-28T08:24:36.761Z,950.44
2018-03-28T08:25:36.761Z,950.44
2018-03-28T08:26:36.761Z,950.42
2018-03-28T08:27:36.756Z,950.51
2018-03-28T08:28:36.749Z,950.41
2018-03-28T08:29:36.752Z,950.47
2018-03-28T08:30:36.905Z,950.59
2018-03-28T08:31:36.747Z,950.54
2018-03-28T08:32:36.743Z,950.49
2018-03-28T08:33:36.757Z,950.49
2018-03-28T08:34:36.740Z,950.47
2018-03-28T08:35:36.740Z,950.50
2018-03-28T08:36:36.740Z,950.42
2018-03-28T08:37:36.737Z,950.39
2018-03-28T08:38:36.738Z,950.42
2018-03-28T08:39:36.738Z,950.38
2018-03-28T08:40:36.735Z,950.41
2018-03-28T08:41:36.737Z,950.40
2018-03-28T08:42:36.732Z,950.37
2018-03-28T08:43:36.743Z,950.39
2018-03-28T08:44:36.729Z,950.37
2018-03-28T08:45:36.730Z,950.37
2018-03-28T08:46:36.731Z,950.37
2018-03-28T08:47:36.728Z,950.41
2018-03-28T08:48:36.728Z,950.34
2018-03-28T08:49:36.754Z,950.35
2018-03-28T08:50:36.749Z,950.30
2018-03-28T08:51:37.004Z,950.31
2018-03-28T08:52:36.761Z,950.35
2018-03-28T08:53:36.718Z,950.34
2018-03-28T08:54:36.715Z,950.30
2018-03-28T08:55:36.711Z,950.31
2018-03-28T08:56:36.719Z,950.31
2018-03-28T08:57:36.740Z,950.32
2018-03-28T08:58:36.710Z,950.34
2018-03-28T08:59:36.708Z,950.34
2018-03-28T09:00:36.708Z,950.37
2018-03-28T09:01:36.721Z,950.37
2018-03-28T09:02:36.711Z,950.36
2018-03-28T09:03:36.703Z,950.37
2018-03-28T09:04:36.696Z,950.38
2018-03-28T09:05:36.700Z,950.39
2018-03-28T09:06:36.693Z,950.40
2018-03-28T09:07:36.696Z,950.42
2018-03-28T09:08:36.693Z,950.42
2018-03-28T09:09:36.687Z,950.40
2018-03-28T09:10:36.684Z,950.36
2018-03-28T09:11:36.682Z,950.36
2018-03-28T09:12:36.699Z,950.31
2018-03-28T09:13:36.676Z,950.29
2018-03-28T09:14:36.678Z,950.28
2018-03-28T09:15:36.677Z,950.29
2018-03-28T09:16:36.673Z,950.33
2018-03-28T09:17:36.717Z,950.37
2018-03-28T09:18:36.668Z,950.29
2018-03-28T09:19:36.675Z,950.31
2018-03-28T09:20:36.662Z,950.34
2018-03-28T09:21:36.667Z,950.33
2018-03-28T09:22:36.798Z,950.36
2018-03-28T09:23:36.726Z,950.30
2018-03-28T09:24:36.715Z,950.32
2018-03-28T09:25:36.683Z,950.37
2018-03-28T09:26:37.579Z,950.36
2018-03-28T09:27:37.712Z,950.33
2018-03-28T09:28:36.758Z,950.46
2018-03-28T09:29:36.751Z,950.54
2018-03-28T09:30:36.647Z,950.61
2018-03-28T09:31:36.646Z,950.55
2018-03-28T09:32:36.642Z,950.51
2018-03-28T09:33:36.643Z,950.43
2018-03-28T09:34:36.642Z,950.54
2018-03-28T09:35:36.641Z,950.45
2018-03-28T09:36:36.648Z,950.48
2018-03-28T09:37:36.651Z,950.51
2018-03-28T09:38:36.645Z,950.62
2018-03-28T09:39:36.648Z,950.58
2018-03-28T09:40:36.649Z,950.54
2018-03-28T09:41:36.677Z,950.46
2018-03-28T09:42:36.660Z,950.48
2018-03-28T09:43:37.072Z,950.48
2018-03-28T09:44:36.662Z,950.45
2018-03-28T09:45:36.666Z,950.41
2018-03-28T09:46:36.668Z,950.39
2018-03-28T09:47:36.677Z,950.36
2018-03-28T09:48:36.756Z,950.39
2018-03-28T09:49:37.615Z,950.43
2018-03-28T09:50:36.744Z,950.41
2018-03-28T09:51:36.757Z,950.43
2018-03-28T09:52:36.706Z,950.42
2018-03-28T09:53:36.712Z,950.38
2018-03-28T09:54:36.711Z,950.40
2018-03-28T09:55:36.762Z,950.42
2018-03-28T09:56:36.817Z,950.35
2018-03-28T09:57:36.724Z,950.34
2018-03-28T09:58:36.752Z,950.38
2018-03-28T09:59:36.751Z,950.32
2018-03-28T10:00:36.762Z,950.30
2018-03-28T10:01:36.740Z,950.31
2018-03-28T10:02:36.726Z,950.28
2018-03-28T10:03:36.826Z,950.29
2018-03-28T10:04:36.746Z,950.34
2018-03-28T10:05:36.766Z,950.35
2018-03-28T10:06:36.890Z,950.33
2018-03-28T10:07:36.743Z,950.32
2018-03-28T10:08:36.885Z,950.23
2018-03-28T10:09:36.780Z,950.26
2018-03-28T10:10:36.756Z,950.26
2018-03-28T10:11:36.747Z,950.28
2018-03-28T10:12:36.776Z,950.24
2018-03-28T10:13:36.744Z,950.30
2018-03-28T10:14:36.756Z,950.31
2018-03-28T10:15:36.838Z,950.31
2018-03-28T10:16:36.782Z,950.31
2018-03-28T10:17:36.786Z,950.29
2018-03-28T10:18:36.777Z,950.21
2018-03-28T10:19:36.772Z,950.25
2018-03-28T10:20:36.847Z,950.29
2018-03-28T10:21:36.878Z,950.25
2018-03-28T10:22:36.792Z,950.30
2018-03-28T10:23:36.783Z,950.25
2018-03-28T10:24:36.805Z,950.32
2018-03-28T10:25:36.852Z,950.20
2018-03-28T10:26:36.777Z,950.19
2018-03-28T10:27:37.079Z,950.24
2018-03-28T10:28:36.811Z,950.25
2018-03-28T10:29:36.828Z,950.23
2018-03-28T10:30:36.908Z,950.26
2018-03-28T10:31:36.804Z,950.26
2018-03-28T10:32:36.793Z,950.23
2018-03-28T10:33:36.810Z,950.20
2018-03-28T10:34:36.811Z,950.25
2018-03-28T10:35:36.868Z,950.26
2018-03-28T10:36:36.805Z,950.27
2018-03-28T10:37:36.876Z,950.29
2018-03-28T10:38:36.796Z,950.31
2018-03-28T10:39:36.959Z,950.26
2018-03-28T10:40:36.818Z,950.30
2018-03-28T10:41:36.880Z,950.25
2018-03-28T10:42:36.859Z,950.22
2018-03-28T10:43:36.841Z,950.21
2018-03-28T10:44:36.885Z,950.16
2018-03-28T10:45:36.835Z,950.19
2018-03-28T10:46:36.828Z,950.20
2018-03-28T10:47:36.899Z,950.14
2018-03-28T10:48:36.887Z,950.10
2018-03-28T10:49:36.863Z,950.06
2018-03-28T10:50:36.905Z,950.10
2018-03-28T10:51:36.856Z,950.11
2018-03-28T10:52:36.891Z,950.10
2018-03-28T10:53:36.990Z,950.07
2018-03-28T10:54:36.828Z,950.16
2018-03-28T10:55:37.533Z,950.13
2018-03-28T10:56:36.841Z,950.14
2018-03-28T10:57:36.947Z,950.17
2018-03-28T10:58:36.934Z,950.15
2018-03-28T10:59:36.884Z,950.12
2018-03-28T11:00:37.567Z,950.11
2018-03-28T11:01:36.863Z,950.11
2018-03-28T11:02:36.906Z,950.07
2018-03-28T11:03:37.578Z,950.07
2018-03-28T11:04:36.875Z,950.05
2018-03-28T11:05:36.898Z,950.01
2018-03-28T11:06:36.860Z,950.04
2018-03-28T11:07:36.873Z,950.08
2018-03-28T11:08:36.853Z,950.09
2018-03-28T11:09:36.851Z,950.06
2018-03-28T11:10:36.862Z,950.07
2018-03-28T11:11:36.866Z,950.01
2018-03-28T11:12:36.862Z,950.06
2018-03-28T11:13:36.852Z,950.04
2018-03-28T11:14:36.856Z,950.03
2018-03-28T11:15:36.855Z,950.02
2018-03-28T11:16:36.869Z,950.00
2018-03-28T11:17:36.860Z,949.99
2018-03-28T11:18:36.853Z,949.99
2018-03-28T11:19:36.865Z,949.96
2018-03-28T11:20:36.874Z,949.92
2018-03-28T11:21:36.909Z,949.93
2018-03-28T11:22:36.899Z,949.94
2018-03-28T11:23:36.873Z,949.93
2018-03-28T11:24:36.912Z,949.91
2018-03-28T11:25:36.896Z,949.93
2018-03-28T11:26:36.873Z,949.94
2018-03-28T11:27:36.913Z,949.95
2018-03-28T11:28:36.849Z,949.97
2018-03-28T11:29:36.880Z,949.94
2018-03-28T11:30:36.865Z,949.91
2018-03-28T11:31:36.849Z,949.94
2018-03-28T11:32:36.939Z,949.84
2018-03-28T11:33:36.869Z,949.87
2018-03-28T11:34:36.879Z,949.89
2018-03-28T11:35:36.846Z,949.92
2018-03-28T11:36:36.885Z,949.90
2018-03-28T11:37:36.904Z,949.92
2018-03-28T11:38:36.885Z,949.93
2018-03-28T11:39:36.853Z,949.90
2018-03-28T11:40:36.854Z,949.93
2018-03-28T11:41:37.551Z,949.89
2018-03-28T11:42:36.945Z,949.90
2018-03-28T11:43:36.870Z,949.89
2018-03-28T11:44:36.841Z,949.93
2018-03-28T11:45:36.990Z,949.91
2018-03-28T11:46:36.845Z,949.92
2018-03-28T11:47:36.867Z,949.95
2018-03-28T11:48:36.957Z,949.93
2018-03-28T11:49:36.846Z,949.95
2018-03-28T11:50:36.861Z,949.95
2018-03-28T11:51:36.870Z,949.93
2018-03-28T11:52:37.043Z,949.97
2018-03-28T11:53:36.840Z,949.98
2018-03-28T11:54:36.873Z,949.94
2018-03-28T11:55:37.606Z,949.92
2018-03-28T11:56:36.964Z,949.95
2018-03-28T11:57:37.543Z,949.98
2018-03-28T11:58:36.845Z,950.02
2018-03-28T11:59:36.933Z,949.97
2018-03-28T12:00:36.860Z,949.96
2018-03-28T12:01:36.843Z,949.90
2018-03-28T12:02:36.829Z,949.87
2018-03-28T12:03:36.829Z,949.86
2018-03-28T12:04:36.861Z,949.86
2018-03-28T12:05:36.825Z,949.86
2018-03-28T12:06:36.825Z,949.87
2018-03-28T12:07:36.834Z,949.88
2018-03-28T12:08:36.828Z,949.87
2018-03-28T12:09:36.823Z,949.82
2018-03-28T12:10:36.824Z,949.84
2018-03-28T12:11:36.824Z,949.81
2018-03-28T12:12:36.819Z,949.84
2018-03-28T12:13:36.923Z,949.85
2018-03-28T12:14:36.820Z,949.90
2018-03-28T12:15:36.822Z,949.91
2018-03-28T12:16:36.819Z,949.88
2018-03-28T12:17:36.830Z,949.90
2018-03-28T12:18:36.818Z,949.92
2018-03-28T12:19:36.818Z,949.85
2018-03-28T12:20:36.825Z,949.87
2018-03-28T12:21:36.814Z,949.89
2018-03-28T12:22:36.816Z,949.91
2018-03-28T12:23:36.817Z,949.86
2018-03-28T12:24:36.812Z,949.85
2018-03-28T12:25:36.812Z,949.87
2018-03-28T12:26:36.812Z,949.82
2018-03-28T12:27:36.810Z,949.85
2018-03-28T12:28:36.896Z,949.79